createdAt,value
2023-03-26T00:01:54.000Z,59.45161290322522
2023-03-26T00:04:33.000Z,60.032258064515524
2023-03-26T00:07:14.000Z,59.5483870967736
2023-03-26T00:09:54.000Z,59.25806451612845
2023-03-26T00:12:32.000Z,59.25806451612845
2023-03-26T00:15:11.000Z,59.354838709676834
2023-03-26T00:17:54.000Z,59.161290322580065
2023-03-26T00:20:33.000Z,59.64516129032199
2023-03-26T00:23:09.000Z,59.45161290322522
2023-03-26T00:25:52.000Z,59.161290322580065
2023-03-26T00:28:33.000Z,59.64516129032199
2023-03-26T00:31:16.000Z,59.354838709676834
2023-03-26T00:33:55.000Z,59.45161290322522
2023-03-26T00:36:33.000Z,59.64516129032199
2023-03-26T00:39:14.000Z,59.354838709676834
2023-03-26T00:41:55.000Z,59.45161290322522
2023-03-26T00:44:35.000Z,59.74193548387037
2023-03-26T00:47:18.000Z,59.64516129032199
2023-03-26T00:50:00.000Z,59.161290322580065
2023-03-26T00:52:44.000Z,59.64516129032199
2023-03-26T00:55:26.000Z,59.354838709676834
2023-03-26T00:58:07.000Z,59.25806451612845
2023-03-26T01:00:48.000Z,59.161290322580065
2023-03-26T01:03:29.000Z,59.5483870967736
2023-03-26T01:06:10.000Z,59.06451612903168
2023-03-26T01:08:51.000Z,59.25806451612845
2023-03-26T01:11:33.000Z,59.5483870967736
2023-03-26T01:14:17.000Z,59.74193548387037
2023-03-26T01:16:59.000Z,59.354838709676834
2023-03-26T01:19:39.000Z,59.64516129032199
2023-03-26T01:22:22.000Z,59.64516129032199
2023-03-26T01:25:02.000Z,59.06451612903168
2023-03-26T01:27:41.000Z,59.74193548387037
2023-03-26T01:30:22.000Z,59.838709677418755
2023-03-26T01:33:05.000Z,59.354838709676834
2023-03-26T01:35:47.000Z,59.06451612903168
2023-03-26T01:38:33.000Z,59.64516129032199
2023-03-26T01:41:17.000Z,59.64516129032199
2023-03-26T01:43:57.000Z,59.25806451612845
2023-03-26T01:46:40.000Z,59.74193548387037
2023-03-26T01:49:23.000Z,59.74193548387037
2023-03-26T01:52:06.000Z,59.354838709676834
2023-03-26T01:54:46.000Z,59.64516129032199
2023-03-26T01:57:28.000Z,59.64516129032199
2023-03-26T02:00:07.000Z,59.45161290322522
2023-03-26T02:02:54.000Z,59.45161290322522
2023-03-26T02:05:35.000Z,59.64516129032199
2023-03-26T02:08:15.000Z,59.354838709676834
2023-03-26T02:10:54.000Z,59.354838709676834
2023-03-26T02:13:34.000Z,59.5483870967736
2023-03-26T02:16:23.000Z,59.5483870967736
2023-03-26T02:19:06.000Z,59.354838709676834
2023-03-26T02:21:47.000Z,59.354838709676834
2023-03-26T02:24:28.000Z,59.64516129032199
2023-03-26T02:27:07.000Z,59.354838709676834
2023-03-26T02:29:47.000Z,59.74193548387037
2023-03-26T02:32:29.000Z,59.5483870967736
2023-03-26T02:35:09.000Z,59.354838709676834
2023-03-26T02:37:48.000Z,59.5483870967736
2023-03-26T02:40:30.000Z,59.64516129032199
2023-03-26T02:43:10.000Z,59.45161290322522
2023-03-26T02:45:51.000Z,59.354838709676834
2023-03-26T02:48:31.000Z,59.74193548387037
2023-03-26T02:51:12.000Z,58.87096774193491
2023-03-26T02:53:54.000Z,59.161290322580065
2023-03-26T02:56:35.000Z,59.64516129032199
2023-03-26T02:59:16.000Z,59.354838709676834
2023-03-26T03:01:58.000Z,59.25806451612845
2023-03-26T03:04:41.000Z,59.45161290322522
2023-03-26T03:07:24.000Z,59.74193548387037
2023-03-26T03:10:06.000Z,59.5483870967736
2023-03-26T03:12:46.000Z,59.5483870967736
2023-03-26T03:15:28.000Z,59.64516129032199
2023-03-26T03:18:07.000Z,59.45161290322522
2023-03-26T03:20:48.000Z,59.838709677418755
2023-03-26T03:23:28.000Z,59.74193548387037
2023-03-26T03:26:09.000Z,59.45161290322522
2023-03-26T03:28:50.000Z,60.032258064515524
2023-03-26T03:31:33.000Z,59.74193548387037
2023-03-26T03:34:17.000Z,59.64516129032199
2023-03-26T03:37:00.000Z,58.967741935483296
2023-03-26T03:39:41.000Z,59.354838709676834
2023-03-26T03:42:22.000Z,59.838709677418755
2023-03-26T03:45:06.000Z,59.354838709676834
2023-03-26T03:47:47.000Z,59.25806451612845
2023-03-26T03:50:29.000Z,59.64516129032199
2023-03-26T03:53:09.000Z,59.45161290322522
2023-03-26T03:55:48.000Z,59.64516129032199
2023-03-26T03:58:30.000Z,59.161290322580065
2023-03-26T04:01:10.000Z,59.06451612903168
2023-03-26T04:03:51.000Z,59.354838709676834
2023-03-26T04:06:33.000Z,59.64516129032199
2023-03-26T04:09:11.000Z,58.967741935483296
2023-03-26T04:11:52.000Z,59.64516129032199
2023-03-26T04:14:33.000Z,59.354838709676834
2023-03-26T04:17:15.000Z,59.354838709676834
2023-03-26T04:19:55.000Z,59.74193548387037
2023-03-26T04:22:36.000Z,59.64516129032199
2023-03-26T04:25:18.000Z,59.64516129032199
2023-03-26T04:28:00.000Z,59.354838709676834
2023-03-26T04:30:44.000Z,59.64516129032199
2023-03-26T04:33:26.000Z,59.06451612903168
2023-03-26T04:36:06.000Z,59.64516129032199
2023-03-26T04:38:48.000Z,59.74193548387037
2023-03-26T04:41:29.000Z,60.032258064515524
2023-03-26T04:44:08.000Z,59.45161290322522
2023-03-26T04:46:50.000Z,59.64516129032199
2023-03-26T04:49:30.000Z,59.64516129032199
2023-03-26T04:52:10.000Z,59.354838709676834
2023-03-26T04:54:54.000Z,59.45161290322522
2023-03-26T04:57:36.000Z,59.5483870967736
2023-03-26T05:00:18.000Z,59.354838709676834
2023-03-26T05:02:59.000Z,59.354838709676834
2023-03-26T05:05:40.000Z,59.64516129032199
2023-03-26T05:08:22.000Z,59.838709677418755
2023-03-26T05:11:06.000Z,59.74193548387037
2023-03-26T05:13:44.000Z,59.74193548387037
2023-03-26T05:16:25.000Z,59.354838709676834
2023-03-26T05:19:06.000Z,59.64516129032199
2023-03-26T05:21:47.000Z,59.64516129032199
2023-03-26T05:24:28.000Z,59.5483870967736
2023-03-26T05:27:11.000Z,59.5483870967736
2023-03-26T05:29:52.000Z,60.032258064515524
2023-03-26T05:32:34.000Z,59.74193548387037
2023-03-26T05:35:18.000Z,59.45161290322522
2023-03-26T05:37:59.000Z,59.74193548387037
2023-03-26T05:40:41.000Z,59.45161290322522
2023-03-26T05:43:22.000Z,59.45161290322522
2023-03-26T05:46:05.000Z,59.161290322580065
2023-03-26T05:48:45.000Z,59.74193548387037
2023-03-26T05:51:26.000Z,59.354838709676834
2023-03-26T05:54:08.000Z,59.5483870967736
2023-03-26T05:56:54.000Z,59.74193548387037
2023-03-26T05:59:34.000Z,59.64516129032199
2023-03-26T06:02:16.000Z,59.354838709676834
2023-03-26T06:04:55.000Z,59.354838709676834
2023-03-26T06:07:36.000Z,59.74193548387037
2023-03-26T06:10:18.000Z,59.45161290322522
2023-03-26T06:12:58.000Z,59.5483870967736
2023-03-26T06:15:41.000Z,59.74193548387037
2023-03-26T06:18:22.000Z,59.5483870967736
2023-03-26T06:21:05.000Z,59.5483870967736
2023-03-26T06:23:45.000Z,59.74193548387037
2023-03-26T06:26:28.000Z,59.354838709676834
2023-03-26T06:29:09.000Z,59.5483870967736
2023-03-26T06:31:50.000Z,59.838709677418755
2023-03-26T06:34:33.000Z,59.25806451612845
2023-03-26T06:37:15.000Z,59.64516129032199
2023-03-26T06:39:57.000Z,59.838709677418755
2023-03-26T06:42:38.000Z,59.45161290322522
2023-03-26T06:45:18.000Z,59.64516129032199
2023-03-26T06:48:00.000Z,59.838709677418755
2023-03-26T06:50:40.000Z,59.838709677418755
2023-03-26T06:53:20.000Z,59.64516129032199
2023-03-26T06:56:01.000Z,60.12903225806391
2023-03-26T06:58:40.000Z,59.64516129032199
2023-03-26T07:01:19.000Z,59.161290322580065
2023-03-26T07:04:00.000Z,59.93548387096714
2023-03-26T07:06:41.000Z,59.74193548387037
2023-03-26T07:09:20.000Z,59.74193548387037
2023-03-26T07:12:00.000Z,60.032258064515524
2023-03-26T07:14:40.000Z,60.032258064515524
2023-03-26T07:17:22.000Z,59.74193548387037
2023-03-26T07:20:02.000Z,59.93548387096714
2023-03-26T07:22:41.000Z,59.64516129032199
2023-03-26T07:25:22.000Z,59.74193548387037
2023-03-26T07:28:06.000Z,60.032258064515524
2023-03-26T07:30:48.000Z,60.12903225806391
2023-03-26T07:33:30.000Z,59.74193548387037
2023-03-26T07:36:11.000Z,59.5483870967736
2023-03-26T07:38:53.000Z,59.74193548387037
2023-03-26T07:41:34.000Z,60.12903225806391
2023-03-26T07:44:17.000Z,59.838709677418755
2023-03-26T07:46:59.000Z,59.74193548387037
2023-03-26T07:49:40.000Z,60.12903225806391
2023-03-26T07:52:22.000Z,59.93548387096714
2023-03-26T07:55:06.000Z,60.22580645161229
2023-03-26T07:57:47.000Z,60.12903225806391
2023-03-26T08:00:29.000Z,59.838709677418755
2023-03-26T08:03:10.000Z,60.032258064515524
2023-03-26T08:05:49.000Z,59.838709677418755
2023-03-26T08:08:32.000Z,60.032258064515524
2023-03-26T08:11:13.000Z,60.032258064515524
2023-03-26T08:13:54.000Z,60.22580645161229
2023-03-26T08:16:35.000Z,59.93548387096714
2023-03-26T08:19:18.000Z,59.93548387096714
2023-03-26T08:21:56.000Z,60.032258064515524
2023-03-26T08:24:36.000Z,60.032258064515524
2023-03-26T08:27:20.000Z,60.41935483870906
2023-03-26T08:30:01.000Z,60.32258064516068
2023-03-26T08:32:42.000Z,60.032258064515524
2023-03-26T08:35:24.000Z,59.93548387096714
2023-03-26T08:38:06.000Z,60.41935483870906
2023-03-26T08:40:47.000Z,60.32258064516068
2023-03-26T08:43:30.000Z,59.74193548387037
2023-03-26T08:46:11.000Z,60.61290322580583
2023-03-26T08:48:54.000Z,60.61290322580583
2023-03-26T08:51:34.000Z,60.32258064516068
2023-03-26T08:54:12.000Z,59.93548387096714
2023-03-26T08:56:56.000Z,60.41935483870906
2023-03-26T08:59:35.000Z,60.41935483870906
2023-03-26T09:02:18.000Z,60.61290322580583
2023-03-26T09:05:02.000Z,60.61290322580583
2023-03-26T09:07:42.000Z,60.12903225806391
2023-03-26T09:10:24.000Z,60.22580645161229
2023-03-26T09:13:06.000Z,60.41935483870906
2023-03-26T09:15:46.000Z,60.41935483870906
2023-03-26T09:18:25.000Z,60.12903225806391
2023-03-26T09:21:07.000Z,60.61290322580583
2023-03-26T09:23:49.000Z,60.61290322580583
2023-03-26T09:26:31.000Z,60.12903225806391
2023-03-26T09:29:11.000Z,60.12903225806391
2023-03-26T09:31:53.000Z,60.61290322580583
2023-03-26T09:34:33.000Z,60.12903225806391
2023-03-26T09:37:16.000Z,60.32258064516068
2023-03-26T09:39:56.000Z,60.41935483870906
2023-03-26T09:42:38.000Z,60.22580645161229
2023-03-26T09:45:19.000Z,59.93548387096714
2023-03-26T09:47:59.000Z,60.516129032257446
2023-03-26T09:50:40.000Z,59.838709677418755
2023-03-26T09:53:22.000Z,60.32258064516068
2023-03-26T09:56:06.000Z,60.61290322580583
2023-03-26T09:58:48.000Z,60.99999999999937
2023-03-26T10:01:30.000Z,60.8064516129026
2023-03-26T10:04:11.000Z,60.8064516129026
2023-03-26T10:06:53.000Z,60.709677419354215
2023-03-26T10:09:33.000Z,59.93548387096714
2023-03-26T10:12:17.000Z,60.12903225806391
2023-03-26T10:14:57.000Z,60.41935483870906
2023-03-26T10:17:41.000Z,60.22580645161229
2023-03-26T10:20:21.000Z,60.41935483870906
2023-03-26T10:23:05.000Z,60.61290322580583
2023-03-26T10:25:49.000Z,60.61290322580583
2023-03-26T10:28:28.000Z,60.41935483870906
2023-03-26T10:31:09.000Z,60.709677419354215
2023-03-26T10:33:48.000Z,59.93548387096714
2023-03-26T10:36:29.000Z,60.32258064516068
2023-03-26T10:39:08.000Z,60.32258064516068
2023-03-26T10:41:51.000Z,60.41935483870906
2023-03-26T10:44:33.000Z,60.032258064515524
2023-03-26T10:47:18.000Z,60.8064516129026
2023-03-26T10:50:01.000Z,60.99999999999937
2023-03-26T10:52:40.000Z,60.41935483870906
2023-03-26T10:55:28.000Z,60.516129032257446
2023-03-26T10:58:10.000Z,60.709677419354215
2023-03-26T11:00:52.000Z,60.32258064516068
2023-03-26T11:03:32.000Z,60.709677419354215
2023-03-26T11:06:15.000Z,60.61290322580583
2023-03-26T11:08:55.000Z,60.61290322580583
2023-03-26T11:11:35.000Z,60.61290322580583
2023-03-26T11:14:17.000Z,60.709677419354215
2023-03-26T11:16:57.000Z,60.61290322580583
2023-03-26T11:19:40.000Z,60.61290322580583
2023-03-26T11:22:22.000Z,60.516129032257446
2023-03-26T11:25:05.000Z,60.61290322580583
2023-03-26T11:27:47.000Z,60.41935483870906
2023-03-26T11:30:29.000Z,60.516129032257446
2023-03-26T11:33:11.000Z,60.8064516129026
2023-03-26T11:35:52.000Z,60.516129032257446
2023-03-26T11:38:35.000Z,60.22580645161229
2023-03-26T11:41:17.000Z,60.709677419354215
2023-03-26T11:43:56.000Z,60.8064516129026
2023-03-26T11:46:36.000Z,60.516129032257446
2023-03-26T11:49:15.000Z,61.193548387096136
2023-03-26T11:51:55.000Z,60.8064516129026
2023-03-26T11:54:34.000Z,60.32258064516068
2023-03-26T11:57:16.000Z,60.90322580645098
2023-03-26T11:59:55.000Z,60.8064516129026
2023-03-26T12:02:34.000Z,60.41935483870906
2023-03-26T12:05:17.000Z,60.61290322580583
2023-03-26T12:08:01.000Z,60.41935483870906
2023-03-26T12:10:43.000Z,60.22580645161229
2023-03-26T12:13:26.000Z,60.22580645161229
2023-03-26T12:16:10.000Z,60.516129032257446
2023-03-26T12:18:50.000Z,60.12903225806391
2023-03-26T12:21:37.000Z,60.12903225806391
2023-03-26T12:24:17.000Z,60.22580645161229
2023-03-26T12:27:01.000Z,59.93548387096714
2023-03-26T12:29:43.000Z,60.22580645161229
2023-03-26T12:32:26.000Z,60.32258064516068
2023-03-26T12:35:08.000Z,60.61290322580583
2023-03-26T12:37:52.000Z,60.32258064516068
2023-03-26T12:37:52.000Z,60.32258064516068
2023-03-26T12:40:34.000Z,60.41935483870906
2023-03-26T12:40:34.000Z,60.41935483870906
2023-03-26T12:43:17.000Z,60.90322580645098
2023-03-26T12:43:17.000Z,60.90322580645098
2023-03-26T12:45:59.000Z,60.22580645161229
2023-03-26T12:45:59.000Z,60.22580645161229
2023-03-26T12:48:42.000Z,60.22580645161229
2023-03-26T12:51:23.000Z,60.61290322580583
2023-03-26T12:54:06.000Z,60.516129032257446
2023-03-26T12:56:49.000Z,60.22580645161229
2023-03-26T12:59:33.000Z,60.22580645161229
2023-03-26T13:02:16.000Z,60.41935483870906
2023-03-26T13:04:59.000Z,60.61290322580583
2023-03-26T13:07:44.000Z,60.32258064516068
2023-03-26T13:10:27.000Z,59.64516129032199
2023-03-26T13:13:09.000Z,60.32258064516068
2023-03-26T13:15:50.000Z,59.93548387096714
2023-03-26T13:18:34.000Z,59.74193548387037
2023-03-26T13:21:18.000Z,60.22580645161229
2023-03-26T13:24:01.000Z,59.93548387096714
2023-03-26T13:26:43.000Z,60.032258064515524
2023-03-26T13:29:27.000Z,60.61290322580583
2023-03-26T13:32:10.000Z,60.12903225806391
2023-03-26T13:34:52.000Z,59.838709677418755
2023-03-26T13:37:35.000Z,59.93548387096714
2023-03-26T13:40:18.000Z,60.12903225806391
2023-03-26T13:43:00.000Z,60.032258064515524
2023-03-26T13:45:42.000Z,59.838709677418755
2023-03-26T13:48:26.000Z,59.838709677418755
2023-03-26T13:51:07.000Z,60.22580645161229
2023-03-26T13:53:49.000Z,59.74193548387037
2023-03-26T13:56:32.000Z,59.45161290322522
2023-03-26T13:59:16.000Z,60.032258064515524
2023-03-26T14:01:57.000Z,59.74193548387037
2023-03-26T14:04:40.000Z,59.74193548387037
2023-03-26T14:07:22.000Z,60.032258064515524
2023-03-26T14:10:04.000Z,59.93548387096714
2023-03-26T14:12:46.000Z,60.032258064515524
2023-03-26T14:15:29.000Z,60.12903225806391
2023-03-26T14:18:11.000Z,59.93548387096714
2023-03-26T14:20:53.000Z,59.838709677418755
2023-03-26T14:23:34.000Z,59.74193548387037
2023-03-26T14:26:19.000Z,59.93548387096714
2023-03-26T14:29:00.000Z,59.74193548387037
2023-03-26T14:31:42.000Z,59.5483870967736
2023-03-26T14:34:28.000Z,59.93548387096714
2023-03-26T14:37:11.000Z,59.93548387096714
2023-03-26T14:39:56.000Z,59.64516129032199
2023-03-26T14:42:37.000Z,59.354838709676834
2023-03-26T14:45:19.000Z,59.93548387096714
2023-03-26T14:48:02.000Z,59.25806451612845
2023-03-26T14:50:44.000Z,59.74193548387037
2023-03-26T14:53:27.000Z,59.64516129032199
2023-03-26T14:56:08.000Z,59.93548387096714
2023-03-26T14:58:50.000Z,59.64516129032199
2023-03-26T15:01:33.000Z,59.74193548387037
2023-03-26T15:04:16.000Z,59.64516129032199
2023-03-26T15:06:56.000Z,59.74193548387037
2023-03-26T15:09:44.000Z,59.838709677418755
2023-03-26T15:12:28.000Z,59.93548387096714
2023-03-26T15:15:09.000Z,60.32258064516068
2023-03-26T15:17:50.000Z,59.64516129032199
2023-03-26T15:20:32.000Z,59.64516129032199
2023-03-26T15:23:16.000Z,59.93548387096714
2023-03-26T15:26:00.000Z,59.74193548387037
2023-03-26T15:28:43.000Z,59.838709677418755
2023-03-26T15:31:27.000Z,60.12903225806391
2023-03-26T15:34:07.000Z,60.12903225806391
2023-03-26T15:36:49.000Z,59.64516129032199
2023-03-26T15:39:29.000Z,60.032258064515524
2023-03-26T15:42:13.000Z,59.93548387096714
2023-03-26T15:44:55.000Z,59.74193548387037
2023-03-26T15:47:39.000Z,59.45161290322522
2023-03-26T15:50:23.000Z,60.032258064515524
2023-03-26T15:53:05.000Z,59.45161290322522
2023-03-26T15:55:46.000Z,59.74193548387037
2023-03-26T15:58:29.000Z,60.032258064515524
2023-03-26T16:01:10.000Z,59.93548387096714
2023-03-26T16:03:53.000Z,59.74193548387037
2023-03-26T16:06:35.000Z,59.838709677418755
2023-03-26T16:09:17.000Z,60.032258064515524
2023-03-26T16:11:57.000Z,59.64516129032199
2023-03-26T16:14:40.000Z,59.74193548387037
2023-03-26T16:17:21.000Z,60.032258064515524
2023-03-26T16:20:05.000Z,59.74193548387037
2023-03-26T16:22:48.000Z,60.22580645161229
2023-03-26T16:25:31.000Z,59.64516129032199
2023-03-26T16:28:19.000Z,59.64516129032199
2023-03-26T16:31:03.000Z,59.64516129032199
2023-03-26T16:33:51.000Z,59.93548387096714
2023-03-26T16:36:35.000Z,59.93548387096714
2023-03-26T16:39:18.000Z,59.838709677418755
2023-03-26T16:41:59.000Z,59.74193548387037
2023-03-26T16:44:41.000Z,59.64516129032199
2023-03-26T16:47:24.000Z,59.64516129032199
2023-03-26T16:50:12.000Z,60.032258064515524
2023-03-26T16:52:55.000Z,59.74193548387037
2023-03-26T16:55:37.000Z,59.74193548387037
2023-03-26T16:58:28.000Z,59.74193548387037
2023-03-26T17:01:12.000Z,60.41935483870906
2023-03-26T17:03:55.000Z,60.22580645161229
2023-03-26T17:06:36.000Z,59.838709677418755
2023-03-26T17:09:21.000Z,60.032258064515524
2023-03-26T17:12:08.000Z,59.354838709676834
2023-03-26T17:14:52.000Z,59.74193548387037
2023-03-26T17:17:33.000Z,59.64516129032199
2023-03-26T17:20:18.000Z,60.32258064516068
2023-03-26T17:23:01.000Z,59.74193548387037
2023-03-26T17:25:44.000Z,59.64516129032199
2023-03-26T17:28:27.000Z,60.22580645161229
2023-03-26T17:31:10.000Z,59.74193548387037
2023-03-26T17:34:05.000Z,60.032258064515524
2023-03-26T17:36:55.000Z,59.45161290322522
2023-03-26T17:39:41.000Z,59.45161290322522
2023-03-26T17:42:26.000Z,60.032258064515524
2023-03-26T17:45:10.000Z,59.74193548387037
2023-03-26T17:47:53.000Z,59.74193548387037
2023-03-26T17:50:32.000Z,60.32258064516068
2023-03-26T17:53:16.000Z,60.12903225806391
2023-03-26T17:55:58.000Z,59.5483870967736
2023-03-26T17:58:41.000Z,60.22580645161229
2023-03-26T18:01:26.000Z,60.032258064515524
2023-03-26T18:04:06.000Z,59.838709677418755
2023-03-26T18:06:50.000Z,60.032258064515524
2023-03-26T18:09:34.000Z,60.032258064515524
2023-03-26T18:12:17.000Z,59.74193548387037
2023-03-26T18:15:00.000Z,59.74193548387037
2023-03-26T18:17:41.000Z,60.12903225806391
2023-03-26T18:20:24.000Z,59.93548387096714
2023-03-26T18:23:07.000Z,59.74193548387037
2023-03-26T18:25:51.000Z,59.64516129032199
2023-03-26T18:28:34.000Z,59.5483870967736
2023-03-26T18:31:17.000Z,59.74193548387037
2023-03-26T18:33:59.000Z,59.25806451612845
2023-03-26T18:36:41.000Z,59.45161290322522
2023-03-26T18:39:26.000Z,59.74193548387037
2023-03-26T18:42:09.000Z,59.5483870967736
2023-03-26T18:44:52.000Z,59.5483870967736
2023-03-26T18:47:30.000Z,59.45161290322522
2023-03-26T18:50:11.000Z,59.5483870967736
2023-03-26T18:53:07.000Z,59.5483870967736
2023-03-26T18:55:52.000Z,59.45161290322522
2023-03-26T18:58:36.000Z,59.45161290322522
2023-03-26T19:01:18.000Z,59.5483870967736
2023-03-26T19:04:01.000Z,59.45161290322522
2023-03-26T19:06:44.000Z,59.838709677418755
2023-03-26T19:09:27.000Z,59.5483870967736
2023-03-26T19:12:08.000Z,59.354838709676834
2023-03-26T19:14:55.000Z,59.5483870967736
2023-03-26T19:17:40.000Z,59.838709677418755
2023-03-26T19:20:21.000Z,60.032258064515524
2023-03-26T19:23:04.000Z,59.74193548387037
2023-03-26T19:25:46.000Z,59.93548387096714
2023-03-26T19:28:35.000Z,60.032258064515524
2023-03-26T19:31:16.000Z,59.45161290322522
2023-03-26T19:34:00.000Z,59.64516129032199
2023-03-26T19:36:42.000Z,59.838709677418755
2023-03-26T19:39:28.000Z,59.161290322580065
2023-03-26T19:42:12.000Z,59.5483870967736
2023-03-26T19:44:56.000Z,59.45161290322522
2023-03-26T19:47:37.000Z,59.5483870967736
2023-03-26T19:50:20.000Z,59.5483870967736
2023-03-26T19:53:02.000Z,59.354838709676834
2023-03-26T19:55:44.000Z,59.838709677418755
2023-03-26T19:58:25.000Z,59.64516129032199
2023-03-26T20:01:09.000Z,59.45161290322522
2023-03-26T20:03:52.000Z,59.64516129032199
2023-03-26T20:06:32.000Z,59.74193548387037
2023-03-26T20:09:16.000Z,59.45161290322522
2023-03-26T20:12:01.000Z,59.64516129032199
2023-03-26T20:14:45.000Z,59.838709677418755
2023-03-26T20:17:28.000Z,59.74193548387037
2023-03-26T20:20:10.000Z,59.5483870967736
2023-03-26T20:22:54.000Z,59.45161290322522
2023-03-26T20:25:36.000Z,59.64516129032199
2023-03-26T20:28:20.000Z,59.45161290322522
2023-03-26T20:31:08.000Z,59.45161290322522
2023-03-26T20:33:51.000Z,59.5483870967736
2023-03-26T20:36:36.000Z,59.45161290322522
2023-03-26T20:39:18.000Z,59.45161290322522
2023-03-26T20:42:01.000Z,59.45161290322522
2023-03-26T20:44:42.000Z,59.74193548387037
2023-03-26T20:47:33.000Z,59.45161290322522
2023-03-26T20:50:17.000Z,59.45161290322522
2023-03-26T20:53:01.000Z,59.45161290322522
2023-03-26T20:55:41.000Z,59.74193548387037
2023-03-26T20:58:26.000Z,59.45161290322522
2023-03-26T21:01:09.000Z,59.45161290322522
2023-03-26T21:03:51.000Z,59.74193548387037
2023-03-26T21:06:33.000Z,59.354838709676834
2023-03-26T21:09:14.000Z,59.45161290322522
2023-03-26T21:11:55.000Z,59.06451612903168
2023-03-26T21:14:36.000Z,59.5483870967736
2023-03-26T21:17:26.000Z,59.64516129032199
2023-03-26T21:20:08.000Z,59.354838709676834
2023-03-26T21:22:51.000Z,59.45161290322522
2023-03-26T21:25:35.000Z,59.5483870967736
2023-03-26T21:28:17.000Z,59.25806451612845
2023-03-26T21:31:00.000Z,59.64516129032199
2023-03-26T21:33:43.000Z,59.354838709676834
2023-03-26T21:36:31.000Z,59.74193548387037
2023-03-26T21:39:14.000Z,59.354838709676834
2023-03-26T21:41:56.000Z,59.161290322580065
2023-03-26T21:44:40.000Z,59.161290322580065
2023-03-26T21:47:24.000Z,58.967741935483296
2023-03-26T21:50:06.000Z,59.354838709676834
2023-03-26T21:52:49.000Z,59.354838709676834
2023-03-26T21:55:33.000Z,59.64516129032199
2023-03-26T21:58:17.000Z,59.161290322580065
2023-03-26T22:01:05.000Z,59.161290322580065
2023-03-26T22:03:45.000Z,59.5483870967736
2023-03-26T22:06:28.000Z,59.5483870967736
2023-03-26T22:09:08.000Z,58.967741935483296
2023-03-26T22:11:52.000Z,59.5483870967736
2023-03-26T22:14:34.000Z,59.838709677418755
2023-03-26T22:17:17.000Z,59.5483870967736
2023-03-26T22:19:59.000Z,59.06451612903168
2023-03-26T22:22:41.000Z,59.25806451612845
2023-03-26T22:25:34.000Z,59.5483870967736
2023-03-26T22:28:16.000Z,59.64516129032199
2023-03-26T22:30:58.000Z,59.06451612903168
2023-03-26T22:33:41.000Z,59.64516129032199
2023-03-26T22:36:21.000Z,59.354838709676834
2023-03-26T22:39:10.000Z,59.354838709676834
2023-03-26T22:41:53.000Z,59.5483870967736
2023-03-26T22:44:34.000Z,59.45161290322522
2023-03-26T22:47:16.000Z,59.5483870967736
2023-03-26T22:50:01.000Z,59.06451612903168
2023-03-26T22:52:45.000Z,59.45161290322522
2023-03-26T22:55:27.000Z,59.25806451612845
2023-03-26T22:58:08.000Z,59.25806451612845
2023-03-26T23:00:54.000Z,59.45161290322522
2023-03-26T23:03:36.000Z,59.45161290322522
2023-03-26T23:06:19.000Z,59.45161290322522
2023-03-26T23:09:02.000Z,59.45161290322522
2023-03-26T23:11:45.000Z,59.25806451612845
2023-03-26T23:14:28.000Z,59.25806451612845
2023-03-26T23:17:10.000Z,58.87096774193491
2023-03-26T23:19:53.000Z,59.354838709676834
2023-03-26T23:22:34.000Z,59.354838709676834
2023-03-26T23:25:17.000Z,59.06451612903168
2023-03-26T23:28:01.000Z,59.161290322580065
2023-03-26T23:30:48.000Z,59.25806451612845
2023-03-26T23:33:31.000Z,59.06451612903168
2023-03-26T23:36:12.000Z,59.161290322580065
2023-03-26T23:38:55.000Z,59.161290322580065
2023-03-26T23:41:44.000Z,59.06451612903168
2023-03-26T23:44:28.000Z,58.77419354838653
2023-03-26T23:47:11.000Z,59.06451612903168
2023-03-26T23:49:53.000Z,59.45161290322522
2023-03-26T23:52:34.000Z,59.45161290322522
2023-03-26T23:55:18.000Z,59.06451612903168
2023-03-26T23:58:05.000Z,59.161290322580065
